createdAt,value
2022-09-09T00:02:13.335Z,67.71
2022-09-09T00:04:40.956Z,67.35
2022-09-09T00:07:22.105Z,66.78
2022-09-09T00:10:19.191Z,67.69
2022-09-09T00:12:52.511Z,67.22
2022-09-09T00:15:21.811Z,69.25
2022-09-09T00:17:50.895Z,68.44
2022-09-09T00:20:22.142Z,68.62
2022-09-09T00:22:52.421Z,68.80
2022-09-09T00:25:25.061Z,67.56
2022-09-09T00:27:52.558Z,68.07
2022-09-09T00:30:23.362Z,67.71
2022-09-09T00:32:51.895Z,67.69
2022-09-09T00:35:23.338Z,67.80
2022-09-09T00:37:51.982Z,67.58
2022-09-09T00:40:23.367Z,67.36
2022-09-09T00:42:52.601Z,67.28
2022-09-09T00:45:28.066Z,66.58
2022-09-09T00:47:55.447Z,66.14
2022-09-09T00:50:26.187Z,66.66
2022-09-09T00:53:22.928Z,66.04
2022-09-09T00:55:50.570Z,66.94
2022-09-09T00:58:18.174Z,67.21
2022-09-09T01:00:50.138Z,67.57
2022-09-09T01:03:35.815Z,67.13
2022-09-09T01:06:06.403Z,67.50
2022-09-09T01:08:53.105Z,66.38
2022-09-09T01:11:39.500Z,67.36
2022-09-09T01:14:41.151Z,68.08
2022-09-09T01:17:10.941Z,68.30
2022-09-09T01:19:45.455Z,68.76
2022-09-09T01:22:20.461Z,68.80
2022-09-09T01:25:06.961Z,68.66
2022-09-09T01:27:35.762Z,68.16
2022-09-09T01:30:05.679Z,68.62
2022-09-09T01:32:43.730Z,68.65
2022-09-09T01:35:31.825Z,68.56
2022-09-09T01:38:00.446Z,67.82
2022-09-09T01:40:28.105Z,67.66
2022-09-09T01:42:56.125Z,67.83
2022-09-09T01:45:23.386Z,67.08
2022-09-09T01:47:51.539Z,67.22
2022-09-09T01:50:19.466Z,66.84
2022-09-09T01:52:47.401Z,67.15
2022-09-09T01:55:15.942Z,67.77
2022-09-09T01:58:00.566Z,67.50
2022-09-09T02:00:28.222Z,67.73
2022-09-09T02:02:58.675Z,67.67
2022-09-09T02:05:42.650Z,67.39
2022-09-09T02:08:12.621Z,69.65
2022-09-09T02:10:43.412Z,68.69
2022-09-09T02:13:12.676Z,67.95
2022-09-09T02:15:40.264Z,68.10
2022-09-09T02:18:09.016Z,68.36
2022-09-09T02:20:38.232Z,68.54
2022-09-09T02:23:06.757Z,68.60
2022-09-09T02:25:34.382Z,69.15
2022-09-09T02:28:04.034Z,69.38
2022-09-09T02:30:31.578Z,68.86
2022-09-09T02:32:59.615Z,68.79
2022-09-09T02:35:27.532Z,67.70
2022-09-09T02:37:56.154Z,68.12
2022-09-09T02:40:23.987Z,68.56
2022-09-09T02:42:52.635Z,68.36
2022-09-09T02:45:21.213Z,68.00
2022-09-09T02:48:04.084Z,68.76
2022-09-09T02:50:35.806Z,68.15
2022-09-09T02:53:03.220Z,68.40
2022-09-09T02:55:43.328Z,68.31
2022-09-09T02:58:12.853Z,67.42
2022-09-09T03:00:41.218Z,66.92
2022-09-09T03:03:09.804Z,68.24
2022-09-09T03:05:37.662Z,68.52
2022-09-09T03:08:06.498Z,68.20
2022-09-09T03:10:33.995Z,68.06
2022-09-09T03:13:01.770Z,68.49
2022-09-09T03:15:32.215Z,67.94
2022-09-09T03:17:59.827Z,67.57
2022-09-09T03:20:27.985Z,66.25
2022-09-09T03:22:55.812Z,66.72
2022-09-09T03:25:26.782Z,66.88
2022-09-09T03:27:55.924Z,66.84
2022-09-09T03:30:24.707Z,66.03
2022-09-09T03:32:52.721Z,66.51
2022-09-09T03:35:20.400Z,68.13
2022-09-09T03:37:47.710Z,68.54
2022-09-09T03:40:17.099Z,67.95
2022-09-09T03:42:45.032Z,68.09
2022-09-09T03:45:12.444Z,68.61
2022-09-09T03:47:39.859Z,68.10
2022-09-09T03:50:09.560Z,68.18
2022-09-09T03:52:38.039Z,68.18
2022-09-09T03:55:08.933Z,67.79
2022-09-09T03:57:37.558Z,68.37
2022-09-09T04:00:06.769Z,68.30
2022-09-09T04:02:44.683Z,68.59
2022-09-09T04:05:12.695Z,68.51
2022-09-09T04:07:41.171Z,68.39
2022-09-09T04:10:09.483Z,68.18
2022-09-09T04:12:38.601Z,69.15
2022-09-09T04:15:06.615Z,69.04
2022-09-09T04:17:34.274Z,68.54
2022-09-09T04:20:02.518Z,68.80
2022-09-09T04:22:29.745Z,69.38
2022-09-09T04:24:57.142Z,68.61
2022-09-09T04:27:26.816Z,68.92
2022-09-09T04:29:54.455Z,68.90
2022-09-09T04:32:22.313Z,69.34
2022-09-09T04:34:49.984Z,68.84
2022-09-09T04:37:17.794Z,69.03
2022-09-09T04:39:46.226Z,70.33
2022-09-09T04:42:13.994Z,70.44
2022-09-09T04:44:43.291Z,69.11
2022-09-09T04:47:11.034Z,70.21
2022-09-09T04:49:39.491Z,69.96
2022-09-09T04:52:06.928Z,69.76
2022-09-09T04:54:34.440Z,68.34
2022-09-09T04:57:02.462Z,69.09
2022-09-09T04:59:29.974Z,69.11
2022-09-09T05:01:57.793Z,69.18
2022-09-09T05:04:25.340Z,68.57
2022-09-09T05:06:52.565Z,69.02
2022-09-09T05:09:19.830Z,69.03
2022-09-09T05:11:47.614Z,69.85
2022-09-09T05:14:15.765Z,70.19
2022-09-09T05:16:45.346Z,70.12
2022-09-09T05:19:13.447Z,70.33
2022-09-09T05:21:42.638Z,69.91
2022-09-09T05:24:10.145Z,69.53
2022-09-09T05:26:37.908Z,68.87
2022-09-09T05:29:05.862Z,69.07
2022-09-09T05:31:33.909Z,69.24
2022-09-09T05:34:01.912Z,70.34
2022-09-09T05:36:29.219Z,69.22
2022-09-09T05:38:56.699Z,69.01
2022-09-09T05:41:24.704Z,68.79
2022-09-09T05:43:53.473Z,68.20
2022-09-09T05:46:22.436Z,68.94
2022-09-09T05:48:53.129Z,68.44
2022-09-09T05:51:25.131Z,66.90
2022-09-09T05:53:53.085Z,67.31
2022-09-09T05:56:22.809Z,67.17
2022-09-09T05:58:50.323Z,66.66
2022-09-09T06:01:20.034Z,67.66
2022-09-09T06:03:48.266Z,67.48
2022-09-09T06:06:21.780Z,67.29
2022-09-09T06:08:52.033Z,67.07
2022-09-09T06:11:23.482Z,67.07
2022-09-09T06:13:55.576Z,66.85
2022-09-09T06:16:39.843Z,67.70
2022-09-09T06:19:07.923Z,66.03
2022-09-09T06:21:37.082Z,67.51
2022-09-09T06:24:05.184Z,67.35
2022-09-09T06:26:33.792Z,66.37
2022-09-09T06:29:01.552Z,66.68
2022-09-09T06:31:31.321Z,65.74
2022-09-09T06:34:00.039Z,64.98
2022-09-09T06:36:31.147Z,65.17
2022-09-09T06:38:59.680Z,65.60
2022-09-09T06:41:28.135Z,65.71
2022-09-09T06:43:59.037Z,64.66
2022-09-09T06:46:33.418Z,65.30
2022-09-09T06:49:00.923Z,64.32
2022-09-09T06:51:29.983Z,65.13
2022-09-09T06:53:58.462Z,63.61
2022-09-09T06:56:29.028Z,64.12
2022-09-09T06:58:57.514Z,63.47
2022-09-09T07:01:25.882Z,63.35
2022-09-09T07:03:54.104Z,63.18
2022-09-09T07:06:32.223Z,63.24
2022-09-09T07:09:00.626Z,62.89
2022-09-09T07:11:35.610Z,63.16
2022-09-09T07:14:03.455Z,63.52
2022-09-09T07:16:32.809Z,63.30
2022-09-09T07:19:01.433Z,62.65
2022-09-09T07:21:29.522Z,62.31
2022-09-09T07:23:57.249Z,63.31
2022-09-09T07:26:26.732Z,62.91
2022-09-09T07:28:54.799Z,61.81
2022-09-09T07:31:33.656Z,60.96
2022-09-09T07:34:01.718Z,61.03
2022-09-09T07:36:33.512Z,60.81
2022-09-09T07:39:02.823Z,59.52
2022-09-09T07:41:37.573Z,60.02
2022-09-09T07:44:06.401Z,59.17
2022-09-09T07:46:35.106Z,59.53
2022-09-09T07:49:03.420Z,59.71
2022-09-09T07:51:42.877Z,58.07
2022-09-09T07:54:12.300Z,57.99
2022-09-09T07:56:40.525Z,57.78
2022-09-09T07:59:08.251Z,54.76
2022-09-09T08:01:40.007Z,57.00
2022-09-09T08:04:09.577Z,56.19
2022-09-09T08:06:38.225Z,56.44
2022-09-09T08:09:06.567Z,54.50
2022-09-09T08:11:38.609Z,54.51
2022-09-09T08:14:08.583Z,53.92
2022-09-09T08:16:38.184Z,53.76
2022-09-09T08:19:08.324Z,54.40
2022-09-09T08:21:37.704Z,52.66
2022-09-09T08:24:08.265Z,53.72
2022-09-09T08:26:36.885Z,52.56
2022-09-09T08:29:05.305Z,52.02
2022-09-09T08:31:32.832Z,50.62
2022-09-09T08:34:01.233Z,51.53
2022-09-09T08:36:29.783Z,51.92
2022-09-09T08:38:58.006Z,50.91
2022-09-09T08:41:26.691Z,51.38
2022-09-09T08:44:00.072Z,50.42
2022-09-09T08:46:49.238Z,50.10
2022-09-09T08:49:19.712Z,50.71
2022-09-09T08:51:47.414Z,48.51
2022-09-09T08:54:21.944Z,50.12
2022-09-09T08:57:02.658Z,49.00
2022-09-09T08:59:30.024Z,47.95
2022-09-09T09:02:02.658Z,47.17
2022-09-09T09:04:45.510Z,47.01
2022-09-09T09:07:19.110Z,47.87
2022-09-09T09:10:03.114Z,45.91
2022-09-09T09:12:32.200Z,44.54
2022-09-09T09:15:00.112Z,43.52
2022-09-09T09:17:28.709Z,44.09
2022-09-09T09:19:56.126Z,44.99
2022-09-09T09:22:26.278Z,44.59
2022-09-09T09:24:58.140Z,42.65
2022-09-09T09:27:26.049Z,42.74
2022-09-09T09:30:20.360Z,41.97
2022-09-09T09:32:42.798Z,44.31
2022-09-09T09:35:11.253Z,43.66
2022-09-09T09:40:26.579Z,38.77
2022-09-09T09:42:55.188Z,40.49
2022-09-09T09:45:25.708Z,39.88
2022-09-09T09:48:04.167Z,40.07
2022-09-09T09:50:34.375Z,38.20
2022-09-09T09:53:06.199Z,36.63
2022-09-09T09:55:34.617Z,36.49
2022-09-09T10:00:52.190Z,34.54
2022-09-09T10:03:32.859Z,35.10
2022-09-09T10:06:01.662Z,35.25
2022-09-09T10:08:29.314Z,34.75
2022-09-09T10:10:56.903Z,39.01
2022-09-09T10:13:27.336Z,35.17
2022-09-09T10:16:24.122Z,36.53
2022-09-09T10:18:57.152Z,35.73
2022-09-09T10:21:44.159Z,35.90
2022-09-09T10:24:14.606Z,35.14
2022-09-09T10:26:56.558Z,35.03
2022-09-09T10:29:26.876Z,32.78
2022-09-09T10:31:54.589Z,31.01
2022-09-09T10:34:31.056Z,31.66
2022-09-09T10:36:59.459Z,32.45
2022-09-09T10:39:39.126Z,30.97
2022-09-09T10:42:17.800Z,28.99
2022-09-09T10:44:51.539Z,31.34
2022-09-09T10:47:33.816Z,30.28
2022-09-09T10:50:13.613Z,30.51
2022-09-09T10:52:43.631Z,31.22
2022-09-09T10:55:11.739Z,31.14
2022-09-09T10:57:42.255Z,30.16
2022-09-09T11:00:23.396Z,30.60
2022-09-09T11:03:01.603Z,30.41
2022-09-09T11:05:35.159Z,32.96
2022-09-09T11:08:04.299Z,31.31
2022-09-09T11:10:38.013Z,30.54
2022-09-09T11:13:05.883Z,29.92
2022-09-09T11:15:36.752Z,30.29
2022-09-09T11:18:05.271Z,28.96
2022-09-09T11:20:33.523Z,30.24
2022-09-09T11:23:11.833Z,31.34
2022-09-09T11:25:59.742Z,30.16
2022-09-09T11:28:45.978Z,30.60
2022-09-09T11:31:29.597Z,31.50
2022-09-09T11:34:09.454Z,30.06
2022-09-09T11:36:43.273Z,32.14
2022-09-09T11:39:25.594Z,30.65
2022-09-09T11:41:53.667Z,30.23
2022-09-09T11:44:26.073Z,30.24
2022-09-09T11:47:02.503Z,31.05
2022-09-09T11:49:32.438Z,30.93
2022-09-09T11:52:00.102Z,31.54
2022-09-09T11:54:34.001Z,32.26
2022-09-09T11:57:02.270Z,31.41
2022-09-09T11:59:31.141Z,32.83
2022-09-09T12:02:12.090Z,32.95
2022-09-09T12:04:45.851Z,34.45
2022-09-09T12:07:28.904Z,33.40
2022-09-09T12:10:06.353Z,33.19
2022-09-09T12:12:34.911Z,35.32
2022-09-09T12:15:08.671Z,35.04
2022-09-09T12:17:43.307Z,32.39
2022-09-09T12:20:16.983Z,32.45
2022-09-09T12:22:57.956Z,31.77
2022-09-09T12:25:44.366Z,30.58
2022-09-09T12:28:31.008Z,30.32
2022-09-09T12:31:19.134Z,30.16
2022-09-09T12:33:49.117Z,30.35
2022-09-09T12:36:17.757Z,30.09
2022-09-09T12:38:45.077Z,30.20
2022-09-09T12:41:22.713Z,29.45
2022-09-09T12:43:51.707Z,29.96
2022-09-09T12:46:39.493Z,29.01
2022-09-09T12:49:07.553Z,28.81
2022-09-09T12:51:34.906Z,31.64
2022-09-09T12:54:02.293Z,28.83
2022-09-09T12:56:31.429Z,28.37
2022-09-09T12:58:59.302Z,31.65
2022-09-09T13:01:27.925Z,30.72
2022-09-09T13:04:17.325Z,30.87
2022-09-09T13:06:45.472Z,29.86
2022-09-09T13:09:13.412Z,30.39
2022-09-09T13:11:43.198Z,31.39
2022-09-09T13:14:21.365Z,29.80
2022-09-09T13:16:59.271Z,30.52
2022-09-09T13:19:28.926Z,31.91
2022-09-09T13:21:57.117Z,31.58
2022-09-09T13:24:29.519Z,32.47
2022-09-09T13:27:02.962Z,31.69
2022-09-09T13:29:30.932Z,30.66
2022-09-09T13:32:22.170Z,32.19
2022-09-09T13:34:53.966Z,31.63
2022-09-09T13:37:28.689Z,31.81
2022-09-09T13:39:56.167Z,29.97
2022-09-09T13:42:27.757Z,34.40
2022-09-09T13:44:55.389Z,32.27
2022-09-09T13:47:24.364Z,32.39
2022-09-09T13:49:52.010Z,30.90
2022-09-09T13:52:19.975Z,31.03
2022-09-09T13:54:50.990Z,30.49
2022-09-09T13:57:20.598Z,29.82
2022-09-09T14:00:04.104Z,33.20
2022-09-09T14:02:33.015Z,30.34
2022-09-09T14:05:00.259Z,29.98
2022-09-09T14:07:27.508Z,30.49
2022-09-09T14:09:55.063Z,32.03
2022-09-09T14:12:22.583Z,31.61
2022-09-09T14:14:50.757Z,32.91
2022-09-09T14:17:18.493Z,31.23
2022-09-09T14:19:47.012Z,31.54
2022-09-09T14:22:14.265Z,31.48
2022-09-09T14:24:41.983Z,33.28
2022-09-09T14:27:09.767Z,31.41
2022-09-09T14:29:38.291Z,33.08
2022-09-09T14:32:09.402Z,32.67
2022-09-09T14:34:39.334Z,32.28
2022-09-09T14:37:07.397Z,32.02
2022-09-09T14:39:34.678Z,31.69
2022-09-09T14:42:02.129Z,32.69
2022-09-09T14:44:30.157Z,31.47
2022-09-09T14:46:57.486Z,31.19
2022-09-09T14:49:24.737Z,32.50
2022-09-09T14:51:52.244Z,30.75
2022-09-09T14:54:19.831Z,31.64
2022-09-09T14:56:48.546Z,31.33
2022-09-09T14:59:16.066Z,33.28
2022-09-09T15:01:43.656Z,32.51
2022-09-09T15:04:12.646Z,31.87
2022-09-09T15:06:41.081Z,31.11
2022-09-09T15:09:08.471Z,32.38
2022-09-09T15:11:39.998Z,30.64
2022-09-09T15:14:08.646Z,30.25
2022-09-09T15:16:36.099Z,30.99
2022-09-09T15:19:03.741Z,30.14
2022-09-09T15:21:35.817Z,30.88
2022-09-09T15:24:03.766Z,31.26
2022-09-09T15:26:31.456Z,30.89
2022-09-09T15:29:00.228Z,29.35
2022-09-09T15:31:29.517Z,31.74
2022-09-09T15:34:01.728Z,31.00
2022-09-09T15:36:30.311Z,34.04
2022-09-09T15:38:57.927Z,33.26
2022-09-09T15:41:25.298Z,34.13
2022-09-09T15:43:53.595Z,34.78
2022-09-09T15:46:38.468Z,36.57
2022-09-09T15:49:07.802Z,36.05
2022-09-09T15:51:42.603Z,37.35
2022-09-09T15:54:13.305Z,37.79
2022-09-09T15:56:41.537Z,37.03
2022-09-09T15:59:09.151Z,38.68
2022-09-09T16:01:36.672Z,37.95
2022-09-09T16:04:05.169Z,37.86
2022-09-09T16:06:34.382Z,37.97
2022-09-09T16:09:03.201Z,36.84
2022-09-09T16:11:32.225Z,37.50
2022-09-09T16:14:00.051Z,39.77
2022-09-09T16:16:28.802Z,38.10
2022-09-09T16:18:57.820Z,41.08
2022-09-09T16:21:30.268Z,40.78
2022-09-09T16:24:00.343Z,40.58
2022-09-09T16:26:28.787Z,38.74
2022-09-09T16:28:56.367Z,39.45
2022-09-09T16:31:24.769Z,38.70
2022-09-09T16:33:52.498Z,38.87
2022-09-09T16:36:26.981Z,40.62
2022-09-09T16:38:56.153Z,40.88
2022-09-09T16:41:23.350Z,41.10
2022-09-09T16:43:57.779Z,41.21
2022-09-09T16:46:26.608Z,42.42
2022-09-09T16:48:55.828Z,42.19
2022-09-09T16:51:27.252Z,42.14
2022-09-09T16:53:55.015Z,43.18
2022-09-09T16:56:23.714Z,44.67
2022-09-09T16:58:51.801Z,46.11
2022-09-09T17:01:19.515Z,45.43
2022-09-09T17:03:47.064Z,45.55
2022-09-09T17:06:15.229Z,45.85
2022-09-09T17:08:42.934Z,43.94
2022-09-09T17:11:16.806Z,44.24
2022-09-09T17:13:44.683Z,46.01
2022-09-09T17:16:12.720Z,45.77
2022-09-09T17:18:40.212Z,46.01
2022-09-09T17:21:09.503Z,46.74
2022-09-09T17:23:39.162Z,46.64
2022-09-09T17:26:08.641Z,46.80
2022-09-09T17:28:39.737Z,46.75
2022-09-09T17:31:07.932Z,46.34
2022-09-09T17:33:36.565Z,46.54
2022-09-09T17:36:07.724Z,47.42
2022-09-09T17:38:36.365Z,46.90
2022-09-09T17:41:07.072Z,47.11
2022-09-09T17:43:34.776Z,48.90
2022-09-09T17:46:13.866Z,49.68
2022-09-09T17:48:41.619Z,48.52
2022-09-09T17:51:10.095Z,48.52
2022-09-09T17:53:38.874Z,49.29
2022-09-09T17:56:07.421Z,50.61
2022-09-09T17:58:34.846Z,50.63
2022-09-09T18:01:10.254Z,49.30
2022-09-09T18:03:38.173Z,48.96
2022-09-09T18:06:06.254Z,50.02
2022-09-09T18:08:36.908Z,50.46
2022-09-09T18:11:05.728Z,50.67
2022-09-09T18:13:33.152Z,50.34
2022-09-09T18:16:01.164Z,50.28
2022-09-09T18:18:29.777Z,49.63
2022-09-09T18:20:58.406Z,49.89
2022-09-09T18:23:25.736Z,51.03
2022-09-09T18:25:53.412Z,51.17
2022-09-09T18:28:24.518Z,50.93
2022-09-09T18:30:52.819Z,50.91
2022-09-09T18:33:20.659Z,51.45
2022-09-09T18:35:50.981Z,51.47
2022-09-09T18:38:19.093Z,51.54
2022-09-09T18:40:46.577Z,51.87
2022-09-09T18:43:15.703Z,52.03
2022-09-09T18:45:44.485Z,51.96
2022-09-09T18:48:15.336Z,52.43
2022-09-09T18:50:43.417Z,51.80
2022-09-09T18:53:10.875Z,51.54
2022-09-09T18:55:38.154Z,51.52
2022-09-09T18:58:05.655Z,51.99
2022-09-09T19:00:33.435Z,52.42
2022-09-09T19:03:01.772Z,52.19
2022-09-09T19:05:31.140Z,53.06
2022-09-09T19:07:59.788Z,52.87
2022-09-09T19:10:27.206Z,53.29
2022-09-09T19:12:55.729Z,53.79
2022-09-09T19:15:23.264Z,53.50
2022-09-09T19:17:51.969Z,54.40
2022-09-09T19:20:23.634Z,53.78
2022-09-09T19:22:50.815Z,53.71
2022-09-09T19:25:18.021Z,53.77
2022-09-09T19:27:45.977Z,53.38
2022-09-09T19:30:13.604Z,53.76
2022-09-09T19:32:53.125Z,53.74
2022-09-09T19:35:21.529Z,54.22
2022-09-09T19:37:49.030Z,54.10
2022-09-09T19:40:17.547Z,54.00
2022-09-09T19:42:45.558Z,53.85
2022-09-09T19:45:12.784Z,53.91
2022-09-09T19:47:40.644Z,53.83
2022-09-09T19:50:08.596Z,53.90
2022-09-09T19:52:35.790Z,54.33
2022-09-09T19:55:03.165Z,54.34
2022-09-09T19:57:30.863Z,54.16
2022-09-09T20:00:13.301Z,53.88
2022-09-09T20:03:19.292Z,54.64
2022-09-09T20:05:51.135Z,53.71
2022-09-09T20:08:43.948Z,54.49
2022-09-09T20:11:25.062Z,54.25
2022-09-09T20:14:15.922Z,54.42
2022-09-09T20:16:55.110Z,55.42
2022-09-09T20:19:46.965Z,55.82
2022-09-09T20:22:14.666Z,57.98
2022-09-09T20:25:18.868Z,56.27
2022-09-09T20:28:21.353Z,56.63
2022-09-09T20:31:26.732Z,57.17
2022-09-09T20:34:06.604Z,57.58
2022-09-09T20:37:13.825Z,58.49
2022-09-09T20:39:53.773Z,58.55
2022-09-09T20:42:55.933Z,58.29
2022-09-09T20:45:24.237Z,58.78
2022-09-09T20:48:27.417Z,58.80
2022-09-09T20:51:13.599Z,59.30
2022-09-09T20:54:06.150Z,59.24
2022-09-09T20:56:45.732Z,59.64
2022-09-09T20:59:54.826Z,60.04
2022-09-09T21:02:50.389Z,59.55
2022-09-09T21:05:29.149Z,59.23
2022-09-09T21:08:19.896Z,59.83
2022-09-09T21:11:07.351Z,58.57
2022-09-09T21:14:05.235Z,58.54
2022-09-09T21:16:50.462Z,59.66
2022-09-09T21:19:50.945Z,60.02
2022-09-09T21:22:30.321Z,59.87
2022-09-09T21:25:20.954Z,58.53
2022-09-09T21:28:05.784Z,59.67
2022-09-09T21:30:40.581Z,59.94
2022-09-09T21:33:10.763Z,60.29
2022-09-09T21:35:39.527Z,60.34
2022-09-09T21:40:36.840Z,60.81
2022-09-09T21:43:05.843Z,60.97
2022-09-09T21:45:34.953Z,59.92
2022-09-09T21:48:02.281Z,60.29
2022-09-09T21:50:29.844Z,60.69
2022-09-09T21:52:57.145Z,61.53
2022-09-09T21:55:24.527Z,61.95
2022-09-09T21:57:52.036Z,62.04
2022-09-09T22:00:19.387Z,62.69
2022-09-09T22:02:49.398Z,62.93
2022-09-09T22:05:16.618Z,63.32
2022-09-09T22:07:43.885Z,63.22
2022-09-09T22:10:12.961Z,64.13
2022-09-09T22:12:41.721Z,63.71
2022-09-09T22:15:09.137Z,64.23
2022-09-09T22:17:36.593Z,64.13
2022-09-09T22:20:04.643Z,63.56
2022-09-09T22:22:31.951Z,64.00
2022-09-09T22:24:59.504Z,64.75
2022-09-09T22:27:26.882Z,63.94
2022-09-09T22:29:54.089Z,64.15
2022-09-09T22:32:22.319Z,64.55
2022-09-09T22:34:51.205Z,63.76
2022-09-09T22:37:19.413Z,63.75
2022-09-09T22:39:47.102Z,63.72
2022-09-09T22:42:15.115Z,64.16
2022-09-09T22:44:42.343Z,65.00
2022-09-09T22:47:09.802Z,64.86
2022-09-09T22:49:37.445Z,65.04
2022-09-09T22:52:04.784Z,65.11
2022-09-09T22:54:32.414Z,65.38
2022-09-09T22:56:59.829Z,65.50
2022-09-09T22:59:27.958Z,65.92
2022-09-09T23:01:57.051Z,65.82
2022-09-09T23:04:25.273Z,65.12
2022-09-09T23:06:52.429Z,66.03
2022-09-09T23:09:19.965Z,65.31
2022-09-09T23:11:47.685Z,65.75
2022-09-09T23:14:15.057Z,66.62
2022-09-09T23:16:46.596Z,65.85
2022-09-09T23:19:15.987Z,67.05
2022-09-09T23:21:44.243Z,66.59
2022-09-09T23:24:12.373Z,66.35
2022-09-09T23:26:39.952Z,65.86
2022-09-09T23:29:07.442Z,64.67
2022-09-09T23:31:37.507Z,65.70
2022-09-09T23:34:04.878Z,65.75
2022-09-09T23:36:32.395Z,66.09
2022-09-09T23:39:00.357Z,66.03
2022-09-09T23:41:28.176Z,65.65
2022-09-09T23:43:55.861Z,64.96
2022-09-09T23:46:25.223Z,64.87
2022-09-09T23:48:52.492Z,65.54
2022-09-09T23:51:23.154Z,66.13
2022-09-09T23:53:51.224Z,66.64
2022-09-09T23:56:19.155Z,66.76
2022-09-09T23:58:47.897Z,65.99
